Time;durP1;ratioP1;P1;durP2;ratioP2;P2;SDS_P1;SDS_P2;PMS_P1;PMS_P2;Temp;Humidity;BMP_temperature;BMP_pressure;BME280_temperature;BME280_humidity;BME280_pressure;Samples;Min_cycle;Max_cycle;Signal;HPM_P1;HPM_P2
2023/05/30 00:00:27;;;;;;;5.80;4.00;;;;;;;;;;6134009;23;20373;-90
2023/05/30 00:02:53;;;;;;;10.73;3.63;;;;;;;;;;6133941;23;20404;-91
2023/05/30 00:05:19;;;;;;;5.20;3.90;;;;;;;;;;6133863;23;20394;-92
2023/05/30 00:07:44;;;;;;;5.10;3.77;;;;;;;;;;6132827;23;20461;-93
2023/05/30 00:10:10;;;;;;;5.60;3.73;;;;;;;;;;6155880;23;20426;-91
2023/05/30 00:12:36;;;;;;;8.13;4.03;;;;;;;;;;6156214;23;20373;-90
2023/05/30 00:15:06;;;;;;;4.17;3.27;;;;;;;;;;6134016;23;20399;-92
2023/05/30 00:17:32;;;;;;;5.17;3.30;;;;;;;;;;6131749;23;20389;-90
2023/05/30 00:19:59;;;;;;;6.10;3.63;;;;;;;;;;6133439;23;20411;-91
2023/05/30 00:22:25;;;;;;;6.03;4.13;;;;;;;;;;6132749;23;20416;-90
2023/05/30 00:24:51;;;;;;;4.70;3.50;;;;;;;;;;6132263;23;20404;-91
2023/05/30 00:27:17;;;;;;;5.53;3.73;;;;;;;;;;6132654;23;21014;-90
2023/05/30 00:29:45;;;;;;;6.43;3.80;;;;;;;;;;6133045;23;20497;-92
2023/05/30 00:32:11;;;;;;;5.83;3.53;;;;;;;;;;6131565;23;20373;-93
2023/05/30 00:34:37;;;;;;;4.10;3.63;;;;;;;;;;6131498;23;20452;-90
2023/05/30 00:37:05;;;;;;;7.53;3.20;;;;;;;;;;6131876;23;20373;-90
2023/05/30 00:39:31;;;;;;;6.20;3.73;;;;;;;;;;6131693;23;21226;-93
2023/05/30 00:41:57;;;;;;;5.40;3.40;;;;;;;;;;6131555;23;21083;-92
2023/05/30 00:44:23;;;;;;;4.07;3.63;;;;;;;;;;6132770;23;20475;-92
2023/05/30 00:46:52;;;;;;;4.60;3.53;;;;;;;;;;6131309;23;20423;-92
2023/05/30 00:49:18;;;;;;;8.00;3.90;;;;;;;;;;6132920;23;20377;-91
2023/05/30 00:51:44;;;;;;;6.70;3.97;;;;;;;;;;6131785;23;20419;-92
2023/05/30 00:54:10;;;;;;;7.20;4.10;;;;;;;;;;6130609;23;20381;-91
2023/05/30 00:56:36;;;;;;;5.33;3.50;;;;;;;;;;6128445;23;20393;-91
2023/05/30 00:59:02;;;;;;;4.83;4.33;;;;;;;;;;6134335;23;20422;-92
2023/05/30 01:01:29;;;;;;;7.33;3.60;;;;;;;;;;6130562;23;20452;-94
2023/05/30 01:03:56;;;;;;;4.07;3.00;;;;;;;;;;6129926;23;20930;-92
2023/05/30 01:06:22;;;;;;;4.93;3.17;;;;;;;;;;6130561;23;20440;-92
2023/05/30 01:08:48;;;;;;;5.20;3.83;;;;;;;;;;6131599;23;20453;-92
2023/05/30 01:11:30;;;;;;;6.33;3.93;;;;;;;;;;6132320;23;20424;-91
2023/05/30 01:14:06;;;;;;;6.37;3.90;;;;;;;;;;6131908;23;20425;-92
2023/05/30 01:16:32;;;;;;;5.47;3.53;;;;;;;;;;6158228;23;20399;-91
2023/05/30 01:19:09;;;;;;;5.30;3.90;;;;;;;;;;6134733;23;20381;-91
2023/05/30 01:21:36;;;;;;;6.17;3.70;;;;;;;;;;6132834;23;20380;-91
2023/05/30 01:24:22;;;;;;;4.30;3.23;;;;;;;;;;6156485;23;20900;-92
2023/05/30 01:27:08;;;;;;;6.10;3.93;;;;;;;;;;6132245;23;20476;-92
2023/05/30 01:29:34;;;;;;;5.17;3.80;;;;;;;;;;6132441;23;20385;-92
2023/05/30 01:32:00;;;;;;;4.60;3.80;;;;;;;;;;6132001;23;20463;-91
2023/05/30 01:34:26;;;;;;;5.90;3.90;;;;;;;;;;6133985;23;20376;-91
2023/05/30 01:36:52;;;;;;;5.13;3.77;;;;;;;;;;6132789;23;20391;-91
2023/05/30 01:39:21;;;;;;;8.20;3.60;;;;;;;;;;6131658;23;20380;-90
2023/05/30 01:42:01;;;;;;;5.73;3.93;;;;;;;;;;6131268;23;20381;-92
2023/05/30 01:44:34;;;;;;;4.10;3.37;;;;;;;;;;6130235;23;20388;-91
2023/05/30 01:47:02;;;;;;;5.30;4.17;;;;;;;;;;6130768;23;20425;-91
2023/05/30 01:49:28;;;;;;;7.10;3.67;;;;;;;;;;6132481;23;20381;-92
2023/05/30 01:51:58;;;;;;;7.77;4.23;;;;;;;;;;6156881;23;20840;-92
2023/05/30 01:54:24;;;;;;;8.33;4.60;;;;;;;;;;6132376;23;20381;-92
2023/05/30 01:56:54;;;;;;;6.03;4.00;;;;;;;;;;6132110;23;20472;-90
2023/05/30 01:59:21;;;;;;;5.53;3.73;;;;;;;;;;6157107;23;20380;-92
2023/05/30 02:01:47;;;;;;;5.00;3.33;;;;;;;;;;6129635;23;20392;-91
2023/05/30 02:04:13;;;;;;;5.53;3.40;;;;;;;;;;6128096;23;20515;-91
2023/05/30 02:06:39;;;;;;;7.90;3.50;;;;;;;;;;6131498;23;20424;-92
2023/05/30 02:09:06;;;;;;;3.70;3.37;;;;;;;;;;6133309;23;20381;-92
2023/05/30 02:11:32;;;;;;;4.93;3.33;;;;;;;;;;6132278;23;20384;-89
2023/05/30 02:13:58;;;;;;;4.77;3.60;;;;;;;;;;6131250;23;20439;-92
2023/05/30 02:16:24;;;;;;;5.80;3.60;;;;;;;;;;6132943;23;20381;-91
2023/05/30 02:18:50;;;;;;;3.80;3.17;;;;;;;;;;6131919;23;20392;-91
2023/05/30 02:21:16;;;;;;;10.17;4.07;;;;;;;;;;6131988;23;20422;-92
2023/05/30 02:23:42;;;;;;;5.93;4.30;;;;;;;;;;6129979;23;20436;-91
2023/05/30 02:26:08;;;;;;;4.73;3.70;;;;;;;;;;6129673;23;20448;-89
2023/05/30 02:28:34;;;;;;;5.00;3.13;;;;;;;;;;6131693;23;20384;-89
2023/05/30 02:31:01;;;;;;;4.00;3.60;;;;;;;;;;6156372;23;20433;-91
2023/05/30 02:33:27;;;;;;;6.70;4.43;;;;;;;;;;6130261;23;20382;-93
2023/05/30 02:35:53;;;;;;;4.60;3.50;;;;;;;;;;6130996;23;20377;-92
2023/05/30 02:38:19;;;;;;;6.37;3.80;;;;;;;;;;6130737;23;20384;-93
2023/05/30 02:40:45;;;;;;;5.83;4.47;;;;;;;;;;6132359;23;20472;-92
2023/05/30 02:43:12;;;;;;;5.10;3.27;;;;;;;;;;6131644;23;20443;-90
2023/05/30 02:45:37;;;;;;;6.77;3.23;;;;;;;;;;6132449;23;20381;-92
2023/05/30 02:48:04;;;;;;;5.43;3.63;;;;;;;;;;6130751;23;20380;-93
2023/05/30 02:50:30;;;;;;;8.40;4.00;;;;;;;;;;6131467;23;20427;-92
2023/05/30 02:52:56;;;;;;;6.70;3.40;;;;;;;;;;6130739;23;20888;-92
2023/05/30 02:55:22;;;;;;;5.17;3.83;;;;;;;;;;6130603;23;20381;-91
2023/05/30 02:57:48;;;;;;;5.67;3.57;;;;;;;;;;6130196;23;20430;-92
2023/05/30 03:00:14;;;;;;;4.37;3.93;;;;;;;;;;6131203;23;20467;-92
2023/05/30 03:02:41;;;;;;;8.53;3.63;;;;;;;;;;6130321;23;20385;-92
2023/05/30 03:05:08;;;;;;;5.83;3.30;;;;;;;;;;6155126;23;20481;-92
2023/05/30 03:07:35;;;;;;;4.47;3.50;;;;;;;;;;6154778;23;20416;-92
2023/05/30 03:10:01;;;;;;;7.30;4.30;;;;;;;;;;6129237;23;20377;-92
2023/05/30 03:12:27;;;;;;;11.27;4.90;;;;;;;;;;6129909;23;20508;-90
2023/05/30 03:14:53;;;;;;;5.50;4.57;;;;;;;;;;6136591;23;20401;-91
2023/05/30 03:17:19;;;;;;;5.37;3.83;;;;;;;;;;6133131;23;20891;-91
2023/05/30 03:19:45;;;;;;;4.83;4.30;;;;;;;;;;6133872;23;20437;-91
2023/05/30 03:22:11;;;;;;;7.83;3.60;;;;;;;;;;6133793;23;20389;-90
2023/05/30 03:24:37;;;;;;;6.17;3.90;;;;;;;;;;6132575;23;20865;-90
2023/05/30 03:27:03;;;;;;;7.37;3.77;;;;;;;;;;6132754;23;20431;-90
2023/05/30 03:29:30;;;;;;;5.50;4.03;;;;;;;;;;6134992;23;20788;-90
2023/05/30 03:31:56;;;;;;;5.23;3.43;;;;;;;;;;6158475;23;20443;-90
2023/05/30 03:34:22;;;;;;;4.70;3.93;;;;;;;;;;6133597;23;20452;-91
2023/05/30 03:36:52;;;;;;;6.77;3.80;;;;;;;;;;6134975;23;20388;-90
2023/05/30 03:39:19;;;;;;;8.37;4.23;;;;;;;;;;6133454;23;20403;-91
2023/05/30 03:41:45;;;;;;;6.60;3.63;;;;;;;;;;6158973;23;20776;-90
2023/05/30 03:44:13;;;;;;;7.07;4.03;;;;;;;;;;6132141;23;20414;-91
2023/05/30 03:46:39;;;;;;;7.47;4.30;;;;;;;;;;6160335;23;20460;-90
2023/05/30 03:49:06;;;;;;;7.70;3.70;;;;;;;;;;6157964;23;20395;-91
2023/05/30 03:51:33;;;;;;;7.70;3.83;;;;;;;;;;6130642;23;20361;-90
2023/05/30 03:53:59;;;;;;;6.20;3.80;;;;;;;;;;6131893;23;20405;-90
2023/05/30 03:56:25;;;;;;;6.17;4.33;;;;;;;;;;6132965;23;20376;-90
2023/05/30 03:58:52;;;;;;;9.87;4.40;;;;;;;;;;6129641;23;20384;-89
2023/05/30 04:01:18;;;;;;;7.70;3.80;;;;;;;;;;6130973;23;20412;-91
2023/05/30 04:03:44;;;;;;;4.60;3.90;;;;;;;;;;6131967;23;20861;-90
2023/05/30 04:06:10;;;;;;;6.20;4.47;;;;;;;;;;6132267;23;20420;-90
2023/05/30 04:08:37;;;;;;;6.80;4.53;;;;;;;;;;6154775;23;20405;-90
2023/05/30 04:11:03;;;;;;;5.97;4.20;;;;;;;;;;6132008;23;20381;-91
2023/05/30 04:13:29;;;;;;;5.83;4.00;;;;;;;;;;6131369;23;20405;-90
2023/05/30 04:15:55;;;;;;;6.40;3.97;;;;;;;;;;6157326;23;20376;-91
2023/05/30 04:18:21;;;;;;;7.37;4.37;;;;;;;;;;6132309;23;20396;-89
2023/05/30 04:20:47;;;;;;;4.93;3.40;;;;;;;;;;6135197;23;20385;-90
2023/05/30 04:23:13;;;;;;;5.47;3.60;;;;;;;;;;6132290;23;20385;-90
2023/05/30 04:25:40;;;;;;;5.97;3.83;;;;;;;;;;6132423;23;20479;-91
2023/05/30 04:28:06;;;;;;;6.00;4.20;;;;;;;;;;6156618;23;20369;-91
2023/05/30 04:30:33;;;;;;;4.60;3.70;;;;;;;;;;6131860;23;20464;-89
2023/05/30 04:32:59;;;;;;;5.93;4.10;;;;;;;;;;6132799;23;20884;-90
2023/05/30 04:35:25;;;;;;;5.97;4.23;;;;;;;;;;6132762;23;20384;-90
2023/05/30 04:37:53;;;;;;;7.70;3.90;;;;;;;;;;6133790;23;20420;-91
2023/05/30 04:40:19;;;;;;;7.77;4.27;;;;;;;;;;6134294;23;20537;-90
2023/05/30 04:42:51;;;;;;;6.70;4.57;;;;;;;;;;6159303;23;20365;-91
2023/05/30 04:45:18;;;;;;;10.33;4.37;;;;;;;;;;6135048;23;20427;-89
2023/05/30 04:47:45;;;;;;;5.90;4.07;;;;;;;;;;6133341;23;20511;-89
2023/05/30 04:50:12;;;;;;;8.70;4.00;;;;;;;;;;6135082;23;20384;-89
2023/05/30 04:52:38;;;;;;;5.80;4.13;;;;;;;;;;6136861;23;20460;-90
2023/05/30 04:55:04;;;;;;;7.53;3.90;;;;;;;;;;6136533;23;20882;-91
2023/05/30 04:57:30;;;;;;;6.67;4.50;;;;;;;;;;6137332;23;20416;-90
2023/05/30 04:59:57;;;;;;;6.07;3.70;;;;;;;;;;6136452;23;20718;-91
2023/05/30 05:02:23;;;;;;;6.80;4.13;;;;;;;;;;6133387;23;20447;-90
2023/05/30 05:04:49;;;;;;;7.50;4.90;;;;;;;;;;6133331;23;20769;-91
2023/05/30 05:07:16;;;;;;;5.27;4.00;;;;;;;;;;6134427;23;20412;-91
2023/05/30 05:09:42;;;;;;;5.63;3.87;;;;;;;;;;6132193;23;20407;-90
2023/05/30 05:12:08;;;;;;;5.33;3.87;;;;;;;;;;6134124;23;21217;-91
2023/05/30 05:14:34;;;;;;;6.17;4.20;;;;;;;;;;6133608;23;20381;-90
2023/05/30 05:17:00;;;;;;;5.23;4.43;;;;;;;;;;6134230;23;20392;-91
2023/05/30 05:19:26;;;;;;;5.07;4.10;;;;;;;;;;6134145;23;20491;-91
2023/05/30 05:21:52;;;;;;;8.53;4.70;;;;;;;;;;6141614;23;20443;-90
2023/05/30 05:24:18;;;;;;;6.83;4.53;;;;;;;;;;6134294;23;20413;-91
2023/05/30 05:26:44;;;;;;;7.40;4.40;;;;;;;;;;6134958;23;20432;-91
2023/05/30 05:29:11;;;;;;;7.03;4.50;;;;;;;;;;6133980;23;20376;-91
2023/05/30 05:31:37;;;;;;;6.37;4.53;;;;;;;;;;6135563;23;20411;-91
2023/05/30 05:34:03;;;;;;;5.53;3.30;;;;;;;;;;6134036;23;20412;-90
2023/05/30 05:36:31;;;;;;;8.27;4.13;;;;;;;;;;6133151;23;20389;-90
2023/05/30 05:38:57;;;;;;;6.40;4.50;;;;;;;;;;6135443;23;20380;-91
2023/05/30 05:41:24;;;;;;;7.23;4.13;;;;;;;;;;6142062;23;20421;-90
2023/05/30 05:43:50;;;;;;;9.63;4.63;;;;;;;;;;6135887;23;20389;-89
2023/05/30 05:46:16;;;;;;;6.43;4.73;;;;;;;;;;6135759;23;20427;-90
2023/05/30 05:48:42;;;;;;;10.57;4.30;;;;;;;;;;6134562;23;20365;-91
2023/05/30 05:51:08;;;;;;;9.60;4.13;;;;;;;;;;6136461;23;20416;-92
2023/05/30 05:53:34;;;;;;;5.50;4.47;;;;;;;;;;6133879;23;20755;-88
2023/05/30 05:56:00;;;;;;;5.70;3.90;;;;;;;;;;6137160;23;20392;-90
2023/05/30 05:58:26;;;;;;;6.07;4.10;;;;;;;;;;6159245;23;20718;-92
2023/05/30 06:00:52;;;;;;;7.33;4.83;;;;;;;;;;6134301;23;20381;-91
2023/05/30 06:03:20;;;;;;;8.97;4.03;;;;;;;;;;6130609;23;20408;-92
2023/05/30 06:05:46;;;;;;;6.03;3.83;;;;;;;;;;6079755;23;20389;-91
2023/05/30 06:08:12;;;;;;;5.20;3.80;;;;;;;;;;6080077;23;20409;-89
2023/05/30 06:10:38;;;;;;;6.30;4.20;;;;;;;;;;6080019;23;20377;-90
2023/05/30 06:13:04;;;;;;;8.93;3.57;;;;;;;;;;6078631;23;20382;-89
2023/05/30 06:15:30;;;;;;;11.00;4.57;;;;;;;;;;6080911;23;20377;-89
2023/05/30 06:17:56;;;;;;;10.20;4.63;;;;;;;;;;6080321;23;20365;-89
2023/05/30 06:20:22;;;;;;;7.53;4.00;;;;;;;;;;6080114;23;20440;-89
2023/05/30 06:22:48;;;;;;;7.13;4.00;;;;;;;;;;6079157;23;20385;-90
2023/05/30 06:25:14;;;;;;;4.80;3.40;;;;;;;;;;6080561;23;20492;-90
2023/05/30 06:27:40;;;;;;;7.10;4.30;;;;;;;;;;6081567;23;20402;-91
2023/05/30 06:30:06;;;;;;;7.20;4.47;;;;;;;;;;6081244;23;20378;-90
2023/05/30 06:32:32;;;;;;;9.80;3.97;;;;;;;;;;6085887;23;20390;-90
2023/05/30 06:34:58;;;;;;;7.23;3.77;;;;;;;;;;6079329;23;20900;-91
2023/05/30 06:37:24;;;;;;;10.07;3.87;;;;;;;;;;6081886;23;20994;-90
2023/05/30 06:39:50;;;;;;;6.30;4.13;;;;;;;;;;6080803;23;20410;-90
2023/05/30 06:42:16;;;;;;;8.33;4.23;;;;;;;;;;6081120;23;20385;-91
2023/05/30 06:44:42;;;;;;;6.10;3.20;;;;;;;;;;6080721;23;20770;-90
2023/05/30 06:47:08;;;;;;;6.23;3.97;;;;;;;;;;6081034;23;20524;-91
2023/05/30 06:49:34;;;;;;;5.80;3.90;;;;;;;;;;6079896;23;20394;-92
2023/05/30 06:52:00;;;;;;;9.23;3.90;;;;;;;;;;6080818;23;20401;-93
2023/05/30 06:54:26;;;;;;;6.10;3.57;;;;;;;;;;6080441;23;20377;-90
2023/05/30 06:56:52;;;;;;;5.83;3.90;;;;;;;;;;6081720;23;20397;-92
2023/05/30 06:59:19;;;;;;;7.20;4.23;;;;;;;;;;6081344;23;20389;-91
2023/05/30 07:01:45;;;;;;;5.10;3.30;;;;;;;;;;6083772;23;20457;-92
2023/05/30 07:04:11;;;;;;;6.77;3.60;;;;;;;;;;6099393;23;20403;-90
2023/05/30 07:06:37;;;;;;;8.00;3.60;;;;;;;;;;6132864;23;20440;-90
2023/05/30 07:09:03;;;;;;;8.50;3.80;;;;;;;;;;6130858;23;20385;-90
2023/05/30 07:11:29;;;;;;;5.70;4.03;;;;;;;;;;6132158;23;20427;-89
2023/05/30 07:13:55;;;;;;;6.10;3.50;;;;;;;;;;6132427;23;20773;-90
2023/05/30 07:16:21;;;;;;;7.17;3.97;;;;;;;;;;6133684;23;20597;-89
2023/05/30 07:18:47;;;;;;;8.43;4.00;;;;;;;;;;6134695;23;20845;-89
2023/05/30 07:21:13;;;;;;;6.10;4.47;;;;;;;;;;6134953;23;20393;-90
2023/05/30 07:23:39;;;;;;;5.43;3.40;;;;;;;;;;6136068;23;20432;-90
2023/05/30 07:26:05;;;;;;;4.50;3.43;;;;;;;;;;6134630;23;20432;-91
2023/05/30 07:28:31;;;;;;;5.87;3.53;;;;;;;;;;6134478;23;20979;-90
2023/05/30 07:30:57;;;;;;;7.33;4.63;;;;;;;;;;6134122;23;20408;-91
2023/05/30 07:33:23;;;;;;;5.50;3.43;;;;;;;;;;6160949;23;20800;-90
2023/05/30 07:35:49;;;;;;;5.57;3.63;;;;;;;;;;6133799;23;20377;-91
2023/05/30 07:38:15;;;;;;;7.80;3.93;;;;;;;;;;6137429;23;20388;-90
2023/05/30 07:40:41;;;;;;;7.20;3.90;;;;;;;;;;6157181;23;20418;-89
2023/05/30 07:43:07;;;;;;;5.90;3.63;;;;;;;;;;6131454;23;20944;-91
2023/05/30 07:45:33;;;;;;;8.70;3.57;;;;;;;;;;6128459;23;20417;-92
2023/05/30 07:47:59;;;;;;;5.23;3.47;;;;;;;;;;6130425;23;20408;-92
2023/05/30 07:50:25;;;;;;;4.50;3.30;;;;;;;;;;6130808;23;20438;-92
2023/05/30 07:52:51;;;;;;;7.30;3.63;;;;;;;;;;6131187;23;20879;-90
2023/05/30 07:55:17;;;;;;;5.13;2.90;;;;;;;;;;6131053;23;20401;-93
2023/05/30 07:57:43;;;;;;;5.60;4.40;;;;;;;;;;6133737;23;20433;-96
2023/05/30 08:00:10;;;;;;;5.90;3.90;;;;;;;;;;6133776;23;20416;-92
2023/05/30 08:02:36;;;;;;;6.07;3.90;;;;;;;;;;6132325;23;20385;-92
2023/05/30 08:05:02;;;;;;;4.33;3.13;;;;;;;;;;6132086;23;20429;-92
2023/05/30 08:07:30;;;;;;;9.87;4.60;;;;;;;;;;6160496;23;20448;-92
2023/05/30 08:09:56;;;;;;;6.37;4.03;;;;;;;;;;6131639;23;20391;-90
2023/05/30 08:12:28;;;;;;;7.27;3.53;;;;;;;;;;6133950;23;20476;-91
2023/05/30 08:14:55;;;;;;;4.37;3.53;;;;;;;;;;6135221;23;21170;-93
2023/05/30 08:17:23;;;;;;;3.97;3.57;;;;;;;;;;6133247;23;20381;-93
2023/05/30 08:19:52;;;;;;;5.70;4.00;;;;;;;;;;6133387;23;20873;-93
2023/05/30 08:22:21;;;;;;;6.13;3.43;;;;;;;;;;6133030;23;20388;-91
2023/05/30 08:24:49;;;;;;;11.30;4.90;;;;;;;;;;6134408;23;20427;-94
2023/05/30 08:27:15;;;;;;;12.33;3.40;;;;;;;;;;6136233;23;20428;-95
2023/05/30 08:29:42;;;;;;;6.93;4.17;;;;;;;;;;6135422;23;20405;-94
2023/05/30 08:32:08;;;;;;;5.97;3.53;;;;;;;;;;6135920;23;20444;-95
2023/05/30 08:34:34;;;;;;;5.80;4.20;;;;;;;;;;6134750;23;20396;-95
2023/05/30 08:37:02;;;;;;;9.87;3.83;;;;;;;;;;6136438;23;20365;-94
2023/05/30 08:39:28;;;;;;;6.53;3.80;;;;;;;;;;6133984;23;20385;-95
2023/05/30 08:41:54;;;;;;;4.60;3.80;;;;;;;;;;6139008;23;21223;-91
2023/05/30 08:44:35;;;;;;;9.43;3.73;;;;;;;;;;6135481;23;20452;-96
2023/05/30 08:47:05;;;;;;;4.60;3.47;;;;;;;;;;6146094;23;20424;-95
2023/05/30 08:59:55;;;;;;;6.57;3.60;;;;;;;;;;6155888;23;20603;-93
2023/05/30 09:02:21;;;;;;;5.77;3.87;;;;;;;;;;6083063;23;20904;-93
2023/05/30 09:04:50;;;;;;;5.90;4.10;;;;;;;;;;6108003;23;20380;-93
2023/05/30 09:07:16;;;;;;;4.93;3.57;;;;;;;;;;6083923;23;20463;-93
2023/05/30 09:09:45;;;;;;;8.70;4.10;;;;;;;;;;6104808;23;20386;-92
2023/05/30 09:12:14;;;;;;;12.00;3.70;;;;;;;;;;6106165;23;20389;-92
2023/05/30 09:14:40;;;;;;;6.23;3.37;;;;;;;;;;6105495;23;20413;-93
2023/05/30 09:17:07;;;;;;;5.60;3.40;;;;;;;;;;6103282;23;20417;-92
2023/05/30 09:19:34;;;;;;;4.63;3.43;;;;;;;;;;6104397;23;20405;-93
2023/05/30 09:22:02;;;;;;;6.37;3.53;;;;;;;;;;6104195;23;20393;-93
2023/05/30 09:24:46;;;;;;;6.03;3.77;;;;;;;;;;6102773;23;20413;-90
2023/05/30 09:27:12;;;;;;;6.07;3.80;;;;;;;;;;6127623;23;20443;-93
2023/05/30 09:29:44;;;;;;;6.83;4.43;;;;;;;;;;6104225;23;20377;-93
2023/05/30 09:32:13;;;;;;;5.40;3.07;;;;;;;;;;6105321;23;20437;-93
2023/05/30 09:34:41;;;;;;;4.90;3.63;;;;;;;;;;6105916;23;20389;-93
2023/05/30 09:37:07;;;;;;;5.10;3.77;;;;;;;;;;6105180;23;20369;-93
2023/05/30 09:39:36;;;;;;;4.00;3.60;;;;;;;;;;6105083;23;20394;-93
2023/05/30 09:42:05;;;;;;;5.03;4.13;;;;;;;;;;6084216;23;20902;-93
2023/05/30 09:44:31;;;;;;;8.80;3.87;;;;;;;;;;6084148;23;20870;-93
2023/05/30 09:46:59;;;;;;;9.87;4.70;;;;;;;;;;6048891;23;20438;-93
2023/05/30 09:49:27;;;;;;;6.43;3.87;;;;;;;;;;6027190;23;21132;-93
2023/05/30 09:51:54;;;;;;;6.20;4.27;;;;;;;;;;6027630;23;20467;-93
2023/05/30 09:54:26;;;;;;;5.40;3.70;;;;;;;;;;6026457;23;20415;-96
2023/05/30 09:56:53;;;;;;;4.27;3.27;;;;;;;;;;6024252;23;20400;-92
2023/05/30 09:59:19;;;;;;;6.43;4.07;;;;;;;;;;6022202;23;20383;-93
2023/05/30 10:01:46;;;;;;;5.20;3.73;;;;;;;;;;6080678;23;20473;-93
2023/05/30 10:04:12;;;;;;;6.83;4.30;;;;;;;;;;6078741;23;20385;-91
2023/05/30 10:06:41;;;;;;;4.43;3.80;;;;;;;;;;6101407;23;20524;-91
2023/05/30 10:09:11;;;;;;;6.50;4.37;;;;;;;;;;6075609;23;20500;-92
2023/05/30 10:11:37;;;;;;;7.03;4.30;;;;;;;;;;6075466;23;20382;-92
2023/05/30 10:14:03;;;;;;;7.70;4.47;;;;;;;;;;6077187;23;20386;-91
2023/05/30 10:16:29;;;;;;;7.57;4.40;;;;;;;;;;6076974;23;20759;-91
2023/05/30 10:18:56;;;;;;;5.87;3.77;;;;;;;;;;6127301;23;20392;-91
2023/05/30 10:21:25;;;;;;;4.90;3.87;;;;;;;;;;6135016;23;20395;-92
2023/05/30 10:23:52;;;;;;;5.20;4.03;;;;;;;;;;6132762;23;20369;-92
2023/05/30 10:26:21;;;;;;;4.40;4.00;;;;;;;;;;6134101;23;20428;-92
2023/05/30 10:28:47;;;;;;;5.90;3.67;;;;;;;;;;6132941;23;20392;-92
2023/05/30 10:31:13;;;;;;;5.77;4.43;;;;;;;;;;6132394;23;20381;-92
2023/05/30 10:33:40;;;;;;;4.17;2.97;;;;;;;;;;6132395;23;20408;-92
2023/05/30 10:36:06;;;;;;;6.40;3.70;;;;;;;;;;6133299;23;20412;-92
2023/05/30 10:38:32;;;;;;;5.23;3.87;;;;;;;;;;6132249;23;20393;-92
2023/05/30 10:41:00;;;;;;;9.00;3.53;;;;;;;;;;6133667;23;20401;-92
2023/05/30 10:43:45;;;;;;;7.30;4.10;;;;;;;;;;6132028;23;20421;-92
2023/05/30 10:46:30;;;;;;;10.20;5.23;;;;;;;;;;6157690;23;20427;-93
2023/05/30 10:48:59;;;;;;;6.37;4.13;;;;;;;;;;6158254;23;20689;-93
2023/05/30 10:51:26;;;;;;;9.97;4.80;;;;;;;;;;6136882;23;20404;-92
2023/05/30 10:53:52;;;;;;;12.13;3.60;;;;;;;;;;6132046;23;20448;-93
2023/05/30 10:56:27;;;;;;;6.03;4.03;;;;;;;;;;6128052;23;20385;-92
2023/05/30 10:58:56;;;;;;;7.00;4.23;;;;;;;;;;6151004;23;20470;-92
2023/05/30 11:01:32;;;;;;;7.43;4.20;;;;;;;;;;6129770;23;20404;-93
2023/05/30 11:03:58;;;;;;;6.77;3.70;;;;;;;;;;6130960;23;20369;-92
2023/05/30 11:06:25;;;;;;;5.33;3.80;;;;;;;;;;6157945;23;20909;-89
2023/05/30 11:08:54;;;;;;;6.37;3.80;;;;;;;;;;6132448;23;20389;-91
2023/05/30 11:11:21;;;;;;;5.10;3.70;;;;;;;;;;6133920;23;20381;-91
2023/05/30 11:13:50;;;;;;;5.10;4.07;;;;;;;;;;6135988;23;20381;-92
2023/05/30 11:16:25;;;;;;;6.40;4.03;;;;;;;;;;6135637;23;20727;-91
2023/05/30 11:18:53;;;;;;;7.43;4.73;;;;;;;;;;6132331;23;20436;-91
2023/05/30 11:21:41;;;;;;;4.70;3.50;;;;;;;;;;6136053;23;20425;-89
2023/05/30 11:24:11;;;;;;;8.47;4.00;;;;;;;;;;6156119;23;20377;-92
2023/05/30 11:26:52;;;;;;;5.10;3.73;;;;;;;;;;6133577;23;20512;-91
2023/05/30 11:29:35;;;;;;;6.00;3.90;;;;;;;;;;6154824;23;20772;-91
2023/05/30 11:32:01;;;;;;;10.50;4.40;;;;;;;;;;6131558;23;20381;-91
2023/05/30 11:34:27;;;;;;;6.60;4.97;;;;;;;;;;6130814;23;20445;-91
2023/05/30 11:36:53;;;;;;;4.57;3.73;;;;;;;;;;6133213;23;20396;-92
2023/05/30 11:39:21;;;;;;;6.60;3.80;;;;;;;;;;6128971;23;20385;-91
2023/05/30 11:41:48;;;;;;;6.07;3.30;;;;;;;;;;6129507;23;20398;-91
2023/05/30 11:44:14;;;;;;;5.23;3.27;;;;;;;;;;6130582;23;20888;-91
2023/05/30 11:46:40;;;;;;;5.97;3.80;;;;;;;;;;6156712;23;20527;-91
2023/05/30 11:49:06;;;;;;;5.87;3.50;;;;;;;;;;6130495;23;20630;-92
2023/05/30 11:51:32;;;;;;;4.80;3.90;;;;;;;;;;6132071;23;20404;-92
2023/05/30 11:53:58;;;;;;;6.20;3.80;;;;;;;;;;6131194;23;20395;-92
2023/05/30 11:56:29;;;;;;;7.83;3.87;;;;;;;;;;6135473;23;20381;-91
2023/05/30 11:58:56;;;;;;;8.03;3.87;;;;;;;;;;6131033;23;20361;-91
2023/05/30 12:01:23;;;;;;;11.30;4.13;;;;;;;;;;6131539;23;20881;-91
2023/05/30 12:03:49;;;;;;;5.60;3.70;;;;;;;;;;6128671;23;20464;-89
2023/05/30 12:06:15;;;;;;;3.97;3.33;;;;;;;;;;6128329;23;20545;-89
2023/05/30 12:08:47;;;;;;;6.50;3.47;;;;;;;;;;6131227;23;20381;-89
2023/05/30 12:11:13;;;;;;;8.77;3.60;;;;;;;;;;6154607;23;20377;-90
2023/05/30 12:13:41;;;;;;;4.27;3.53;;;;;;;;;;6129823;23;20384;-89
2023/05/30 12:16:07;;;;;;;6.40;4.27;;;;;;;;;;6133008;23;20825;-91
2023/05/30 12:18:36;;;;;;;7.27;4.10;;;;;;;;;;6130997;23;20380;-91
2023/05/30 12:21:02;;;;;;;6.03;3.77;;;;;;;;;;6131675;23;20393;-92
2023/05/30 12:23:29;;;;;;;5.30;3.60;;;;;;;;;;6131477;23;20387;-91
2023/05/30 12:25:55;;;;;;;6.03;3.40;;;;;;;;;;6133612;23;20412;-92
2023/05/30 12:28:24;;;;;;;6.77;4.97;;;;;;;;;;6131985;23;20489;-92
2023/05/30 12:30:54;;;;;;;6.40;4.50;;;;;;;;;;6157715;23;20380;-92
2023/05/30 12:33:24;;;;;;;5.27;4.63;;;;;;;;;;6155938;23;20716;-92
2023/05/30 12:35:54;;;;;;;4.63;3.50;;;;;;;;;;6133557;23;21111;-92
2023/05/30 12:38:20;;;;;;;7.23;3.90;;;;;;;;;;6130656;23;20388;-92
2023/05/30 12:40:46;;;;;;;4.97;3.13;;;;;;;;;;6127177;23;20369;-91
2023/05/30 12:43:15;;;;;;;4.30;3.40;;;;;;;;;;6152178;23;20397;-92
2023/05/30 12:45:45;;;;;;;8.87;4.00;;;;;;;;;;6131451;23;20727;-91
2023/05/30 12:48:11;;;;;;;4.33;3.93;;;;;;;;;;6127361;23;20917;-92
2023/05/30 12:50:40;;;;;;;7.07;4.00;;;;;;;;;;6131804;23;20788;-92
2023/05/30 12:53:06;;;;;;;5.97;4.40;;;;;;;;;;6127218;23;20368;-92
2023/05/30 12:55:32;;;;;;;4.70;3.30;;;;;;;;;;6137028;23;20376;-89
2023/05/30 12:57:59;;;;;;;4.43;3.67;;;;;;;;;;6155138;23;20380;-92
2023/05/30 13:00:26;;;;;;;4.50;3.47;;;;;;;;;;6130301;23;20397;-91
2023/05/30 13:02:58;;;;;;;6.50;4.07;;;;;;;;;;6130513;23;20377;-91
2023/05/30 13:05:24;;;;;;;6.60;3.97;;;;;;;;;;6132460;23;20381;-91
2023/05/30 13:07:50;;;;;;;4.87;3.00;;;;;;;;;;6132202;23;20431;-91
2023/05/30 13:10:16;;;;;;;8.53;3.60;;;;;;;;;;6136058;23;20439;-92
2023/05/30 13:12:42;;;;;;;5.90;3.70;;;;;;;;;;6134513;23;20377;-91
2023/05/30 13:15:08;;;;;;;5.70;3.70;;;;;;;;;;6134647;23;20384;-92
2023/05/30 13:17:34;;;;;;;6.30;3.37;;;;;;;;;;6134086;23;20480;-92
2023/05/30 13:20:00;;;;;;;6.87;3.87;;;;;;;;;;6157469;23;20968;-91
2023/05/30 13:22:26;;;;;;;4.83;3.27;;;;;;;;;;6132588;23;20380;-91
2023/05/30 13:24:55;;;;;;;5.23;3.73;;;;;;;;;;6134790;23;20395;-92
2023/05/30 13:27:21;;;;;;;5.23;3.40;;;;;;;;;;6132576;23;20417;-91
2023/05/30 13:29:47;;;;;;;5.07;3.33;;;;;;;;;;6134784;23;20377;-92
2023/05/30 13:32:13;;;;;;;6.00;3.70;;;;;;;;;;6133879;23;20385;-91
2023/05/30 13:34:39;;;;;;;6.10;4.00;;;;;;;;;;6132266;23;20976;-91
2023/05/30 13:37:07;;;;;;;5.53;3.50;;;;;;;;;;6132846;23;20845;-91
2023/05/30 13:39:34;;;;;;;4.90;3.40;;;;;;;;;;6132466;23;20836;-92
2023/05/30 13:42:00;;;;;;;7.63;3.10;;;;;;;;;;6130393;23;20972;-91
2023/05/30 13:44:26;;;;;;;6.60;3.07;;;;;;;;;;6127912;23;20449;-91
2023/05/30 13:46:53;;;;;;;5.90;3.70;;;;;;;;;;6129869;23;20487;-90
2023/05/30 13:49:21;;;;;;;6.40;3.60;;;;;;;;;;6130907;23;20739;-90
2023/05/30 13:51:51;;;;;;;6.10;3.57;;;;;;;;;;6131433;23;20405;-90
2023/05/30 13:54:17;;;;;;;5.37;3.20;;;;;;;;;;6130097;23;20385;-91
2023/05/30 13:56:42;;;;;;;6.73;3.30;;;;;;;;;;6133436;23;20428;-90
2023/05/30 13:59:08;;;;;;;6.83;3.70;;;;;;;;;;6131543;23;20385;-92
2023/05/30 14:01:34;;;;;;;7.30;3.80;;;;;;;;;;6134736;23;20176;-92
2023/05/30 14:04:02;;;;;;;5.57;3.73;;;;;;;;;;6129916;23;20932;-92
2023/05/30 14:06:28;;;;;;;6.07;3.80;;;;;;;;;;6132390;23;20451;-91
2023/05/30 14:08:54;;;;;;;9.43;3.47;;;;;;;;;;6130950;23;20384;-92
2023/05/30 14:11:21;;;;;;;7.87;4.27;;;;;;;;;;6156970;23;20423;-91
2023/05/30 14:13:48;;;;;;;6.13;3.87;;;;;;;;;;6133320;23;20365;-92
2023/05/30 14:16:14;;;;;;;5.90;3.10;;;;;;;;;;6136387;23;20447;-90
2023/05/30 14:18:44;;;;;;;5.70;3.47;;;;;;;;;;6132213;23;20380;-92
2023/05/30 14:21:13;;;;;;;5.33;2.60;;;;;;;;;;6134968;23;20400;-93
2023/05/30 14:23:40;;;;;;;6.47;3.80;;;;;;;;;;6133001;23;20475;-92
2023/05/30 14:26:06;;;;;;;8.40;3.80;;;;;;;;;;6158609;23;20848;-92
2023/05/30 14:28:32;;;;;;;5.30;3.40;;;;;;;;;;6133396;23;20373;-92
2023/05/30 14:30:58;;;;;;;7.07;3.07;;;;;;;;;;6139503;23;20397;-92
2023/05/30 14:33:24;;;;;;;5.87;3.60;;;;;;;;;;6135238;23;20365;-92
2023/05/30 14:35:53;;;;;;;5.70;3.60;;;;;;;;;;6160058;23;20376;-92
2023/05/30 14:38:19;;;;;;;6.57;3.70;;;;;;;;;;6158361;23;20492;-92
2023/05/30 14:40:46;;;;;;;5.37;3.93;;;;;;;;;;6157810;23;20373;-92
2023/05/30 14:43:12;;;;;;;7.10;3.17;;;;;;;;;;6131837;23;20381;-92
2023/05/30 14:45:39;;;;;;;8.90;4.03;;;;;;;;;;6135616;23;20461;-92
2023/05/30 14:48:07;;;;;;;6.30;3.97;;;;;;;;;;6159572;23;20416;-92
2023/05/30 14:50:33;;;;;;;5.03;3.10;;;;;;;;;;6134270;23;21011;-92
2023/05/30 14:52:59;;;;;;;5.53;3.30;;;;;;;;;;6156109;23;20452;-92